createdAt,value
2022-07-29T00:01:44.009Z,21.26
2022-07-29T00:04:14.104Z,21.24
2022-07-29T00:06:44.157Z,21.21
2022-07-29T00:09:12.651Z,21.20
2022-07-29T00:11:42.025Z,21.17
2022-07-29T00:14:10.536Z,21.15
2022-07-29T00:16:41.515Z,21.17
2022-07-29T00:19:10.087Z,21.17
2022-07-29T00:21:39.730Z,21.17
2022-07-29T00:24:08.487Z,21.15
2022-07-29T00:26:37.054Z,21.14
2022-07-29T00:29:33.065Z,21.12
2022-07-29T00:31:56.605Z,21.07
2022-07-29T00:34:35.107Z,21.06
2022-07-29T00:37:03.935Z,21.03
2022-07-29T00:39:32.767Z,20.98
2022-07-29T00:42:01.238Z,21.00
2022-07-29T00:44:29.964Z,20.98
2022-07-29T00:46:59.856Z,20.98
2022-07-29T00:49:28.445Z,20.94
2022-07-29T00:51:56.906Z,20.90
2022-07-29T00:54:25.355Z,20.92
2022-07-29T00:56:53.756Z,20.90
2022-07-29T00:59:22.579Z,20.90
2022-07-29T01:01:51.092Z,20.88
2022-07-29T01:04:21.144Z,20.83
2022-07-29T01:06:49.851Z,20.84
2022-07-29T01:09:18.445Z,20.81
2022-07-29T01:12:05.967Z,20.80
2022-07-29T01:14:37.861Z,20.81
2022-07-29T01:17:10.267Z,20.80
2022-07-29T01:19:49.815Z,20.77
2022-07-29T01:22:29.126Z,20.76
2022-07-29T01:25:12.569Z,20.78
2022-07-29T01:27:44.527Z,20.80
2022-07-29T01:30:16.198Z,20.82
2022-07-29T01:32:50.249Z,20.83
2022-07-29T01:35:22.036Z,20.83
2022-07-29T01:37:53.359Z,20.86
2022-07-29T01:40:23.418Z,20.88
2022-07-29T01:42:54.362Z,20.91
2022-07-29T01:45:28.341Z,20.94
2022-07-29T01:48:07.528Z,20.95
2022-07-29T01:50:37.678Z,20.99
2022-07-29T01:53:07.289Z,21.06
2022-07-29T01:55:39.182Z,21.11
2022-07-29T01:58:09.329Z,21.07
2022-07-29T02:00:40.113Z,21.07
2022-07-29T02:03:13.729Z,21.06
2022-07-29T02:05:43.980Z,21.06
2022-07-29T02:08:13.712Z,21.09
2022-07-29T02:10:43.439Z,21.13
2022-07-29T02:13:13.782Z,21.14
2022-07-29T02:15:44.361Z,21.13
2022-07-29T02:18:15.841Z,21.16
2022-07-29T02:20:47.160Z,21.16
2022-07-29T02:23:17.078Z,21.18
2022-07-29T02:25:45.830Z,21.18
2022-07-29T02:28:15.451Z,21.21
2022-07-29T02:30:45.871Z,21.20
2022-07-29T02:33:15.759Z,21.22
2022-07-29T02:35:46.066Z,21.20
2022-07-29T02:38:25.803Z,21.17
2022-07-29T02:40:56.006Z,21.13
2022-07-29T02:43:25.001Z,21.10
2022-07-29T02:45:56.131Z,21.11
2022-07-29T02:48:30.383Z,21.09
2022-07-29T02:51:04.025Z,21.07
2022-07-29T02:53:35.607Z,21.04
2022-07-29T02:56:06.775Z,21.04
2022-07-29T02:58:37.011Z,21.04
2022-07-29T03:01:10.691Z,21.01
2022-07-29T03:03:40.503Z,21.00
2022-07-29T03:06:09.806Z,20.96
2022-07-29T03:09:00.445Z,20.94
2022-07-29T03:11:44.300Z,20.95
2022-07-29T03:14:18.561Z,20.92
2022-07-29T03:16:49.245Z,20.94
2022-07-29T03:19:19.066Z,20.92
2022-07-29T03:21:47.584Z,20.91
2022-07-29T03:24:28.325Z,20.89
2022-07-29T03:26:57.302Z,20.82
2022-07-29T03:29:33.109Z,20.81
2022-07-29T03:32:08.352Z,20.80
2022-07-29T03:34:38.726Z,20.79
2022-07-29T03:37:08.376Z,20.82
2022-07-29T03:39:41.901Z,20.85
2022-07-29T03:42:12.847Z,20.89
2022-07-29T03:44:43.554Z,20.92
2022-07-29T03:47:16.129Z,20.92
2022-07-29T03:49:44.762Z,20.92
2022-07-29T03:52:13.224Z,20.96
2022-07-29T03:54:43.115Z,20.96
2022-07-29T03:57:13.185Z,20.96
2022-07-29T03:59:42.594Z,21.00
2022-07-29T04:02:14.663Z,21.01
2022-07-29T04:04:45.702Z,21.04
2022-07-29T04:07:14.566Z,21.06
2022-07-29T04:09:43.425Z,21.06
2022-07-29T04:12:12.215Z,21.09
2022-07-29T04:14:40.886Z,21.10
2022-07-29T04:17:09.346Z,21.16
2022-07-29T04:19:38.170Z,21.19
2022-07-29T04:22:08.382Z,21.26
2022-07-29T04:24:37.017Z,21.28
2022-07-29T04:27:05.705Z,21.34
2022-07-29T04:29:34.525Z,21.42
2022-07-29T04:32:02.924Z,21.48
2022-07-29T04:34:31.944Z,21.57
2022-07-29T04:37:00.946Z,21.64
2022-07-29T04:39:30.903Z,21.70
2022-07-29T04:41:59.494Z,21.73
2022-07-29T04:44:29.404Z,21.79
2022-07-29T04:46:58.653Z,21.88
2022-07-29T04:49:27.247Z,21.96
2022-07-29T04:51:56.206Z,22.07
2022-07-29T04:54:25.659Z,22.15
2022-07-29T04:56:57.264Z,22.31
2022-07-29T04:59:26.592Z,22.44
2022-07-29T05:01:55.153Z,22.48
2022-07-29T05:04:24.280Z,22.54
2022-07-29T05:06:52.762Z,22.63
2022-07-29T05:09:21.546Z,22.68
2022-07-29T05:11:50.121Z,22.75
2022-07-29T05:14:20.835Z,22.80
2022-07-29T05:16:52.252Z,22.95
2022-07-29T05:19:20.750Z,23.07
2022-07-29T05:21:49.534Z,23.19
2022-07-29T05:24:19.396Z,23.31
2022-07-29T05:26:48.683Z,23.40
2022-07-29T05:29:43.361Z,23.50
2022-07-29T05:32:08.114Z,23.63
2022-07-29T05:34:37.364Z,23.71
2022-07-29T05:37:19.145Z,23.83
2022-07-29T05:39:50.650Z,23.94
2022-07-29T05:42:26.846Z,24.07
2022-07-29T05:44:56.581Z,24.17
2022-07-29T05:47:27.032Z,24.25
2022-07-29T05:49:55.641Z,24.34
2022-07-29T05:52:24.153Z,24.44
2022-07-29T05:54:52.919Z,24.54
2022-07-29T05:57:22.847Z,24.58
2022-07-29T05:59:52.141Z,24.65
2022-07-29T06:02:20.781Z,24.78
2022-07-29T06:04:51.867Z,24.87
2022-07-29T06:07:20.352Z,24.96
2022-07-29T06:09:48.825Z,25.09
2022-07-29T06:12:17.222Z,25.20
2022-07-29T06:14:45.590Z,25.24
2022-07-29T06:17:14.043Z,25.30
2022-07-29T06:19:43.114Z,25.46
2022-07-29T06:22:13.873Z,25.55
2022-07-29T06:24:45.205Z,25.68
2022-07-29T06:27:13.913Z,25.82
2022-07-29T06:29:42.923Z,25.93
2022-07-29T06:32:11.513Z,26.11
2022-07-29T06:34:40.153Z,26.23
2022-07-29T06:37:15.715Z,26.31
2022-07-29T06:39:44.555Z,26.47
2022-07-29T06:42:12.922Z,26.55
2022-07-29T06:44:43.061Z,26.59
2022-07-29T06:47:11.442Z,26.65
2022-07-29T06:49:39.995Z,26.61
2022-07-29T06:52:08.403Z,26.59
2022-07-29T06:54:40.083Z,26.70
2022-07-29T06:57:08.582Z,26.83
2022-07-29T06:59:36.984Z,26.88
2022-07-29T07:02:05.472Z,26.98
2022-07-29T07:04:34.602Z,27.11
2022-07-29T07:07:03.976Z,27.30
2022-07-29T07:09:40.532Z,27.48
2022-07-29T07:12:11.393Z,27.62
2022-07-29T07:14:41.037Z,27.71
2022-07-29T07:17:09.768Z,27.85
2022-07-29T07:19:38.402Z,28.01
2022-07-29T07:22:06.856Z,27.99
2022-07-29T07:24:35.361Z,27.99
2022-07-29T07:27:04.226Z,28.04
2022-07-29T07:29:34.466Z,28.10
2022-07-29T07:32:03.168Z,28.23
2022-07-29T07:34:32.536Z,28.35
2022-07-29T07:37:00.964Z,28.49
2022-07-29T07:39:29.454Z,28.56
2022-07-29T07:41:57.873Z,28.72
2022-07-29T07:44:26.665Z,28.75
2022-07-29T07:46:56.526Z,28.81
2022-07-29T07:49:28.835Z,28.86
2022-07-29T07:51:57.522Z,28.95
2022-07-29T07:54:26.806Z,29.03
2022-07-29T07:56:58.243Z,29.15
2022-07-29T07:59:26.725Z,29.25
2022-07-29T08:01:56.919Z,29.40
2022-07-29T08:04:28.730Z,29.48
2022-07-29T08:06:58.393Z,29.63
2022-07-29T08:09:30.174Z,29.80
2022-07-29T08:12:00.648Z,29.91
2022-07-29T08:14:29.142Z,30.05
2022-07-29T08:17:00.161Z,30.15
2022-07-29T08:19:29.495Z,30.06
2022-07-29T08:21:57.983Z,30.01
2022-07-29T08:24:36.394Z,30.11
2022-07-29T08:27:12.923Z,30.21
2022-07-29T08:29:53.554Z,30.28
2022-07-29T08:32:50.958Z,30.38
2022-07-29T08:35:12.013Z,30.37
2022-07-29T08:37:40.471Z,30.39
2022-07-29T08:40:09.291Z,30.58
2022-07-29T08:42:38.246Z,30.58
2022-07-29T08:45:07.506Z,30.68
2022-07-29T08:47:40.978Z,30.58
2022-07-29T08:50:09.934Z,30.58
2022-07-29T08:52:39.519Z,30.63
2022-07-29T08:55:08.710Z,30.83
2022-07-29T08:57:37.687Z,30.87
2022-07-29T09:00:11.463Z,30.88
2022-07-29T09:02:47.863Z,30.99
2022-07-29T09:05:22.590Z,31.16
2022-07-29T09:07:51.282Z,31.20
2022-07-29T09:10:19.714Z,31.19
2022-07-29T09:12:48.412Z,31.39
2022-07-29T09:15:16.783Z,31.57
2022-07-29T09:17:48.345Z,31.58
2022-07-29T09:20:18.298Z,31.59
2022-07-29T09:22:50.257Z,31.72
2022-07-29T09:25:34.919Z,31.86
2022-07-29T09:28:10.210Z,31.83
2022-07-29T09:30:39.597Z,31.84
2022-07-29T09:33:09.647Z,31.75
2022-07-29T09:35:37.999Z,31.73
2022-07-29T09:38:13.364Z,31.77
2022-07-29T09:40:42.308Z,31.87
2022-07-29T09:43:14.387Z,31.86
2022-07-29T09:45:43.446Z,31.91
2022-07-29T09:48:20.335Z,31.84
2022-07-29T09:50:50.787Z,31.73
2022-07-29T09:53:31.157Z,31.72
2022-07-29T09:55:59.744Z,31.83
2022-07-29T09:58:28.362Z,31.77
2022-07-29T10:00:58.943Z,31.72
2022-07-29T10:03:29.107Z,31.78
2022-07-29T10:06:07.905Z,31.93
2022-07-29T10:08:36.869Z,32.15
2022-07-29T10:11:13.577Z,32.28
2022-07-29T10:13:43.404Z,32.37
2022-07-29T10:16:12.197Z,32.47
2022-07-29T10:18:45.945Z,32.54
2022-07-29T10:21:34.791Z,32.64
2022-07-29T10:24:03.565Z,32.92
2022-07-29T10:26:32.670Z,33.00
2022-07-29T10:29:01.066Z,33.07
2022-07-29T10:31:32.169Z,32.98
2022-07-29T10:34:07.615Z,32.74
2022-07-29T10:36:43.698Z,32.70
2022-07-29T10:39:22.236Z,32.73
2022-07-29T10:42:02.052Z,32.82
2022-07-29T10:44:32.738Z,32.61
2022-07-29T10:47:01.777Z,32.45
2022-07-29T10:49:31.925Z,32.42
2022-07-29T10:52:05.788Z,32.51
2022-07-29T10:54:43.756Z,32.62
2022-07-29T10:57:25.979Z,32.85
2022-07-29T11:00:22.497Z,33.09
2022-07-29T11:02:54.482Z,32.98
2022-07-29T11:05:32.028Z,32.73
2022-07-29T11:08:20.076Z,32.54
2022-07-29T11:10:49.970Z,32.32
2022-07-29T11:13:29.178Z,32.11
2022-07-29T11:16:06.961Z,31.95
2022-07-29T11:18:37.111Z,31.90
2022-07-29T11:21:07.947Z,31.86
2022-07-29T11:23:39.859Z,31.78
2022-07-29T11:29:19.138Z,32.06
2022-07-29T11:31:49.714Z,32.21
2022-07-29T11:34:18.821Z,32.38
2022-07-29T11:37:00.080Z,32.49
2022-07-29T11:39:36.623Z,32.58
2022-07-29T11:42:32.094Z,32.69
2022-07-29T11:45:08.433Z,33.03
2022-07-29T11:47:53.698Z,33.41
2022-07-29T11:50:37.000Z,33.56
2022-07-29T11:53:12.482Z,33.44
2022-07-29T11:55:50.966Z,33.25
2022-07-29T11:58:25.020Z,33.41
2022-07-29T12:00:55.716Z,33.59
2022-07-29T12:06:17.983Z,33.30
2022-07-29T12:08:47.515Z,33.32
2022-07-29T12:11:23.531Z,33.20
2022-07-29T12:13:53.121Z,33.00
2022-07-29T12:16:25.584Z,32.89
2022-07-29T12:18:59.616Z,32.98
2022-07-29T12:21:28.911Z,33.09
2022-07-29T12:24:04.797Z,33.25
2022-07-29T12:26:40.551Z,33.43
2022-07-29T12:29:15.442Z,33.62
2022-07-29T12:31:49.036Z,33.57
2022-07-29T12:34:17.998Z,33.33
